createdAt,value
2017-08-25T00:00:23.623Z,0
2017-08-25T00:01:04.232Z,0
2017-08-25T00:01:44.902Z,0
2017-08-25T00:02:25.498Z,0
2017-08-25T00:03:06.087Z,0
2017-08-25T00:03:46.706Z,0
2017-08-25T00:04:27.288Z,0
2017-08-25T00:05:07.905Z,0
2017-08-25T00:05:48.561Z,0
2017-08-25T00:06:29.151Z,0
2017-08-25T00:07:09.725Z,0
2017-08-25T00:07:50.320Z,0
2017-08-25T00:08:30.951Z,0
2017-08-25T00:09:11.538Z,0
2017-08-25T00:09:52.117Z,0
2017-08-25T00:10:32.732Z,0
2017-08-25T00:11:13.321Z,0
2017-08-25T00:11:53.925Z,0
2017-08-25T00:12:34.513Z,0
2017-08-25T00:13:15.128Z,0
2017-08-25T00:13:55.724Z,0
2017-08-25T00:14:36.308Z,0
2017-08-25T00:15:16.885Z,0
2017-08-25T00:15:57.483Z,0
2017-08-25T00:16:38.066Z,0
2017-08-25T00:17:18.663Z,0
2017-08-25T00:17:59.247Z,0
2017-08-25T00:18:39.834Z,0
2017-08-25T00:19:20.411Z,0
2017-08-25T00:20:00.983Z,0
2017-08-25T00:20:41.572Z,0
2017-08-25T00:21:22.138Z,0
2017-08-25T00:22:02.743Z,0
2017-08-25T00:22:43.341Z,0
2017-08-25T00:23:23.941Z,0
2017-08-25T00:24:04.558Z,0
2017-08-25T00:24:45.183Z,0
2017-08-25T00:25:25.793Z,0
2017-08-25T00:26:06.397Z,0
2017-08-25T00:26:46.987Z,0
2017-08-25T00:27:27.567Z,0
2017-08-25T00:28:10.757Z,0
2017-08-25T00:28:51.351Z,0
2017-08-25T00:29:31.950Z,0
2017-08-25T00:30:12.582Z,0
2017-08-25T00:30:53.178Z,0
2017-08-25T00:31:33.754Z,0
2017-08-25T00:32:14.316Z,0
2017-08-25T00:32:54.925Z,0
2017-08-25T00:33:35.874Z,0
2017-08-25T00:34:16.858Z,0
2017-08-25T00:34:58.000Z,0
2017-08-25T00:35:39.331Z,0
2017-08-25T00:36:20.321Z,0
2017-08-25T00:37:01.308Z,0
2017-08-25T00:37:42.184Z,0
2017-08-25T00:38:23.649Z,0
2017-08-25T00:39:04.208Z,0
2017-08-25T00:39:44.809Z,0
2017-08-25T00:40:25.430Z,0
2017-08-25T00:41:06.010Z,0
2017-08-25T00:41:46.608Z,0
2017-08-25T00:42:27.176Z,0
2017-08-25T00:43:07.757Z,0
2017-08-25T00:43:48.321Z,0
2017-08-25T00:44:28.884Z,0
2017-08-25T00:45:09.493Z,0
2017-08-25T00:45:50.387Z,0
2017-08-25T00:46:30.992Z,0
2017-08-25T00:47:11.585Z,0
2017-08-25T00:47:52.151Z,0
2017-08-25T00:48:32.722Z,0
2017-08-25T00:49:13.291Z,0
2017-08-25T00:49:53.881Z,0
2017-08-25T00:50:34.449Z,0
2017-08-25T00:51:15.032Z,0
2017-08-25T00:51:55.608Z,0
2017-08-25T00:52:36.175Z,0
2017-08-25T00:53:16.743Z,0
2017-08-25T00:53:57.313Z,0
2017-08-25T00:54:37.888Z,0
2017-08-25T00:55:18.459Z,0
2017-08-25T00:55:59.025Z,0
2017-08-25T00:56:39.615Z,0
2017-08-25T00:57:20.168Z,0
2017-08-25T00:58:00.745Z,0
2017-08-25T00:58:41.312Z,0
2017-08-25T00:59:21.908Z,0
2017-08-25T01:00:02.479Z,0
2017-08-25T01:00:43.047Z,0
2017-08-25T01:01:23.609Z,0
2017-08-25T01:02:04.207Z,0
2017-08-25T01:02:44.781Z,0
2017-08-25T01:03:25.371Z,0
2017-08-25T01:04:05.968Z,0
2017-08-25T01:04:46.541Z,0
2017-08-25T01:05:27.114Z,0
2017-08-25T01:06:07.681Z,0
2017-08-25T01:06:48.270Z,0
2017-08-25T01:07:28.843Z,0
2017-08-25T01:08:09.420Z,0
2017-08-25T01:08:49.991Z,0
2017-08-25T01:09:30.576Z,0
2017-08-25T01:10:11.160Z,0
2017-08-25T01:10:51.732Z,0
2017-08-25T01:11:32.324Z,0
2017-08-25T01:12:12.896Z,0
2017-08-25T01:12:53.472Z,0
2017-08-25T01:13:34.034Z,0
2017-08-25T01:14:14.617Z,0
2017-08-25T01:14:55.204Z,0
2017-08-25T01:15:35.790Z,0
2017-08-25T01:16:16.364Z,0
2017-08-25T01:16:56.934Z,0
2017-08-25T01:17:37.525Z,0
2017-08-25T01:18:18.091Z,0
2017-08-25T01:18:58.660Z,0
2017-08-25T01:19:39.236Z,0
2017-08-25T01:20:19.811Z,0
2017-08-25T01:21:00.381Z,0
2017-08-25T01:21:41.012Z,0
2017-08-25T01:22:21.572Z,0
2017-08-25T01:23:02.153Z,0
2017-08-25T01:23:42.744Z,0
2017-08-25T01:24:23.316Z,0
2017-08-25T01:25:03.886Z,0
2017-08-25T01:25:44.449Z,0
2017-08-25T01:26:25.028Z,0
2017-08-25T01:27:05.591Z,0
2017-08-25T01:27:46.181Z,0
2017-08-25T01:28:26.737Z,0
2017-08-25T01:29:07.302Z,0
2017-08-25T01:29:47.877Z,0
2017-08-25T01:30:28.448Z,0
2017-08-25T01:31:09.013Z,0
2017-08-25T01:31:49.619Z,0
2017-08-25T01:32:30.200Z,0
2017-08-25T01:33:10.793Z,0
2017-08-25T01:33:51.361Z,0
2017-08-25T01:34:31.938Z,0
2017-08-25T01:35:12.511Z,0
2017-08-25T01:35:53.078Z,0
2017-08-25T01:36:33.670Z,0
2017-08-25T01:37:14.261Z,0
2017-08-25T01:37:54.842Z,0
2017-08-25T01:38:35.435Z,0
2017-08-25T01:39:15.999Z,0
2017-08-25T01:39:56.559Z,0
2017-08-25T01:40:37.148Z,0
2017-08-25T01:41:17.728Z,0
2017-08-25T01:41:58.297Z,0
2017-08-25T01:42:38.880Z,0
2017-08-25T01:43:19.438Z,0
2017-08-25T01:44:00.030Z,0
2017-08-25T01:44:40.600Z,0
2017-08-25T01:45:21.175Z,0
2017-08-25T01:46:01.797Z,0
2017-08-25T01:46:42.367Z,0
2017-08-25T01:47:22.931Z,0
2017-08-25T01:48:03.501Z,0
2017-08-25T01:48:44.079Z,0
2017-08-25T01:49:24.648Z,0
2017-08-25T01:50:05.229Z,0
2017-08-25T01:50:45.830Z,0
2017-08-25T01:51:26.399Z,0
2017-08-25T01:52:06.998Z,0
2017-08-25T01:52:47.571Z,0
2017-08-25T01:53:28.145Z,0
2017-08-25T01:54:08.715Z,0
2017-08-25T01:54:49.286Z,0
2017-08-25T01:55:29.847Z,0
2017-08-25T01:56:10.421Z,0
2017-08-25T01:56:50.993Z,0
2017-08-25T01:57:31.562Z,0
2017-08-25T01:58:12.126Z,0
2017-08-25T01:58:52.722Z,0
2017-08-25T01:59:33.269Z,0
2017-08-25T02:00:13.855Z,0
2017-08-25T02:00:54.425Z,0
2017-08-25T02:01:35.020Z,0
2017-08-25T02:02:15.569Z,0
2017-08-25T02:02:56.159Z,0
2017-08-25T02:03:36.779Z,0
2017-08-25T02:04:17.343Z,0
2017-08-25T02:04:57.965Z,0
2017-08-25T02:05:38.535Z,0
2017-08-25T02:06:19.103Z,0
2017-08-25T02:06:59.700Z,0
2017-08-25T02:07:40.274Z,0
2017-08-25T02:08:20.883Z,0
2017-08-25T02:09:01.457Z,0
2017-08-25T02:09:42.041Z,0
2017-08-25T02:10:22.631Z,0
2017-08-25T02:11:03.198Z,0
2017-08-25T02:11:43.763Z,0
2017-08-25T02:12:24.345Z,0
2017-08-25T02:13:04.882Z,0
2017-08-25T02:13:45.453Z,0
2017-08-25T02:14:26.040Z,0
2017-08-25T02:15:06.613Z,0
2017-08-25T02:15:47.205Z,0
2017-08-25T02:16:27.754Z,0
2017-08-25T02:17:08.321Z,0
2017-08-25T02:17:48.920Z,0
2017-08-25T02:18:29.510Z,0
2017-08-25T02:19:10.065Z,0
2017-08-25T02:19:50.675Z,0
2017-08-25T02:20:31.264Z,0
2017-08-25T02:21:11.830Z,0
2017-08-25T02:21:52.391Z,0
2017-08-25T02:22:32.961Z,0
2017-08-25T02:23:13.544Z,0
2017-08-25T02:23:54.145Z,0
2017-08-25T02:24:34.742Z,0
2017-08-25T02:25:15.316Z,0
2017-08-25T02:25:55.891Z,0
2017-08-25T02:26:36.484Z,0
2017-08-25T02:27:17.100Z,0
2017-08-25T02:27:57.667Z,0
2017-08-25T02:28:38.247Z,0
2017-08-25T02:29:18.823Z,0
2017-08-25T02:29:59.407Z,0
2017-08-25T02:30:39.995Z,0
2017-08-25T02:31:20.576Z,0
2017-08-25T02:32:01.134Z,0
2017-08-25T02:32:41.711Z,0
2017-08-25T02:33:22.272Z,0
2017-08-25T02:34:02.852Z,0
2017-08-25T02:34:43.428Z,0
2017-08-25T02:35:23.998Z,0
2017-08-25T02:36:04.577Z,0
2017-08-25T02:36:45.137Z,0
2017-08-25T02:37:25.714Z,0
2017-08-25T02:38:06.292Z,0
2017-08-25T02:38:46.915Z,0
2017-08-25T02:39:27.527Z,0
2017-08-25T02:40:08.083Z,0
2017-08-25T02:40:48.663Z,0
2017-08-25T02:41:29.316Z,0
2017-08-25T02:42:09.900Z,0
2017-08-25T02:42:50.517Z,0
2017-08-25T02:43:31.126Z,0
2017-08-25T02:44:11.712Z,0
2017-08-25T02:44:52.273Z,0
2017-08-25T02:45:32.838Z,0
2017-08-25T02:46:13.400Z,0
2017-08-25T02:46:53.978Z,0
2017-08-25T02:47:34.538Z,0
2017-08-25T02:48:15.110Z,0
2017-08-25T02:48:55.691Z,0
2017-08-25T02:49:36.265Z,0
2017-08-25T02:50:16.834Z,0
2017-08-25T02:50:57.443Z,0
2017-08-25T02:51:38.013Z,0
2017-08-25T02:52:18.591Z,0
2017-08-25T02:52:59.159Z,0
2017-08-25T02:53:39.739Z,0
2017-08-25T02:54:20.301Z,0
2017-08-25T02:55:00.885Z,0
2017-08-25T02:55:41.472Z,0
2017-08-25T02:56:22.051Z,0
2017-08-25T02:57:02.627Z,0
2017-08-25T02:57:43.212Z,0
2017-08-25T02:58:23.782Z,0
2017-08-25T02:59:04.352Z,0
2017-08-25T02:59:44.957Z,0
2017-08-25T03:00:25.536Z,0
2017-08-25T03:01:06.106Z,0
2017-08-25T03:01:46.689Z,0
2017-08-25T03:02:27.261Z,0
2017-08-25T03:03:07.823Z,0
2017-08-25T03:03:48.409Z,0
2017-08-25T03:04:28.986Z,0
2017-08-25T03:05:09.565Z,0
2017-08-25T03:05:50.118Z,0
2017-08-25T03:06:30.705Z,0
2017-08-25T03:07:11.293Z,0
2017-08-25T03:07:51.867Z,0
2017-08-25T03:08:32.459Z,0
2017-08-25T03:09:13.051Z,0
2017-08-25T03:09:53.616Z,0
2017-08-25T03:10:34.173Z,0
2017-08-25T03:11:14.773Z,0
2017-08-25T03:11:55.368Z,0
2017-08-25T03:12:35.960Z,0
2017-08-25T03:13:16.534Z,0
2017-08-25T03:13:57.120Z,0
2017-08-25T03:14:37.721Z,0
2017-08-25T03:15:18.305Z,0
2017-08-25T03:15:58.875Z,0
2017-08-25T03:16:39.434Z,0
2017-08-25T03:17:20.000Z,0
2017-08-25T03:18:00.794Z,0
2017-08-25T03:18:41.397Z,0
2017-08-25T03:19:21.990Z,0
2017-08-25T03:20:02.581Z,0
2017-08-25T03:20:43.150Z,0
2017-08-25T03:21:23.775Z,0
2017-08-25T03:22:04.348Z,0
2017-08-25T03:22:44.916Z,0
2017-08-25T03:23:25.506Z,0
2017-08-25T03:24:06.178Z,0
2017-08-25T03:24:46.734Z,0
2017-08-25T03:25:27.321Z,0
2017-08-25T03:26:07.895Z,0
2017-08-25T03:26:48.454Z,0
2017-08-25T03:27:29.047Z,0
2017-08-25T03:28:09.617Z,0
2017-08-25T03:28:50.177Z,0
2017-08-25T03:29:30.732Z,0
2017-08-25T03:30:11.309Z,0
2017-08-25T03:30:51.883Z,0
2017-08-25T03:31:32.460Z,0
2017-08-25T03:32:13.070Z,0
2017-08-25T03:32:53.646Z,0
2017-08-25T03:33:34.237Z,0
2017-08-25T03:34:14.799Z,0
2017-08-25T03:34:55.366Z,0
2017-08-25T03:35:35.962Z,0
2017-08-25T03:36:16.535Z,0
2017-08-25T03:36:57.101Z,0
2017-08-25T03:37:37.708Z,0
2017-08-25T03:38:18.331Z,0
2017-08-25T03:38:58.930Z,0
2017-08-25T03:39:39.497Z,0
2017-08-25T03:40:20.101Z,4
2017-08-25T03:41:00.665Z,4
2017-08-25T03:41:41.243Z,4
2017-08-25T03:42:21.839Z,4
2017-08-25T03:43:02.384Z,4
2017-08-25T03:43:42.983Z,4
2017-08-25T03:44:23.575Z,0
2017-08-25T03:45:04.154Z,0
2017-08-25T03:45:44.732Z,0
2017-08-25T03:46:25.300Z,0
2017-08-25T03:47:05.869Z,0
2017-08-25T03:47:46.437Z,0
2017-08-25T03:48:27.083Z,4
2017-08-25T03:49:07.665Z,4
2017-08-25T03:49:48.221Z,4
2017-08-25T03:50:28.793Z,4
2017-08-25T03:51:09.412Z,4
2017-08-25T03:51:49.980Z,8
2017-08-25T03:52:30.565Z,4
2017-08-25T03:53:11.175Z,4
2017-08-25T03:53:51.749Z,8
2017-08-25T03:54:32.320Z,8
2017-08-25T03:55:12.896Z,8
2017-08-25T03:55:53.473Z,12
2017-08-25T03:56:34.044Z,8
2017-08-25T03:57:14.612Z,8
2017-08-25T03:57:55.211Z,8
2017-08-25T03:58:35.799Z,8
2017-08-25T03:59:16.372Z,8
2017-08-25T03:59:56.953Z,8
2017-08-25T04:00:37.511Z,12
2017-08-25T04:01:18.102Z,12
2017-08-25T04:01:58.688Z,12
2017-08-25T04:02:39.258Z,12
2017-08-25T04:03:19.815Z,16
2017-08-25T04:04:00.390Z,16
2017-08-25T04:04:40.973Z,16
2017-08-25T04:05:21.550Z,20
2017-08-25T04:06:02.166Z,16
2017-08-25T04:06:42.738Z,24
2017-08-25T04:07:23.332Z,24
2017-08-25T04:08:03.920Z,24
2017-08-25T04:08:44.574Z,28
2017-08-25T04:09:25.143Z,28
2017-08-25T04:10:05.722Z,36
2017-08-25T04:10:46.297Z,36
2017-08-25T04:11:26.898Z,40
2017-08-25T04:12:07.493Z,40
2017-08-25T04:12:48.051Z,44
2017-08-25T04:13:28.627Z,48
2017-08-25T04:14:09.233Z,44
2017-08-25T04:14:49.779Z,48
2017-08-25T04:15:30.355Z,48
2017-08-25T04:16:10.926Z,52
2017-08-25T04:16:51.494Z,52
2017-08-25T04:17:32.060Z,56
2017-08-25T04:18:12.631Z,60
2017-08-25T04:18:53.192Z,60
2017-08-25T04:19:33.775Z,64
2017-08-25T04:20:14.347Z,64
2017-08-25T04:20:54.915Z,68
2017-08-25T04:21:35.488Z,72
2017-08-25T04:22:16.057Z,76
2017-08-25T04:22:56.631Z,80
2017-08-25T04:23:37.218Z,80
2017-08-25T04:24:17.820Z,80
2017-08-25T04:24:58.387Z,80
2017-08-25T04:25:38.965Z,84
2017-08-25T04:26:19.538Z,84
2017-08-25T04:27:00.112Z,88
2017-08-25T04:27:40.692Z,96
2017-08-25T04:28:21.275Z,96
2017-08-25T04:29:01.877Z,100
2017-08-25T04:29:42.443Z,108
2017-08-25T04:30:23.048Z,112
2017-08-25T04:31:03.655Z,120
2017-08-25T04:31:44.215Z,124
2017-08-25T04:32:24.783Z,136
2017-08-25T04:33:05.368Z,148
2017-08-25T04:33:45.946Z,160
2017-08-25T04:34:26.511Z,176
2017-08-25T04:35:07.089Z,180
2017-08-25T04:35:47.661Z,184
2017-08-25T04:36:28.252Z,188
2017-08-25T04:37:08.825Z,188
2017-08-25T04:37:49.426Z,196
2017-08-25T04:38:30.016Z,200
2017-08-25T04:39:10.604Z,204
2017-08-25T04:39:51.199Z,200
2017-08-25T04:40:31.803Z,200
2017-08-25T04:41:12.417Z,196
2017-08-25T04:41:52.987Z,208
2017-08-25T04:42:33.564Z,208
2017-08-25T04:43:14.137Z,212
2017-08-25T04:43:54.708Z,212
2017-08-25T04:44:35.294Z,216
2017-08-25T04:45:15.864Z,224
2017-08-25T04:45:56.466Z,240
2017-08-25T04:46:37.028Z,256
2017-08-25T04:47:17.604Z,276
2017-08-25T04:47:58.203Z,300
2017-08-25T04:48:38.787Z,320
2017-08-25T04:49:19.361Z,336
2017-08-25T04:49:59.930Z,344
2017-08-25T04:50:40.519Z,352
2017-08-25T04:51:21.093Z,364
2017-08-25T04:52:01.653Z,360
2017-08-25T04:52:42.239Z,360
2017-08-25T04:53:22.823Z,360
2017-08-25T04:54:03.414Z,372
2017-08-25T04:54:43.980Z,388
2017-08-25T04:55:24.565Z,412
2017-08-25T04:56:05.131Z,436
2017-08-25T04:56:45.707Z,456
2017-08-25T04:57:26.307Z,464
2017-08-25T04:58:06.878Z,468
2017-08-25T04:58:47.455Z,480
2017-08-25T04:59:28.031Z,496
2017-08-25T05:00:08.625Z,500
2017-08-25T05:00:49.245Z,500
2017-08-25T05:01:29.830Z,524
2017-08-25T05:02:10.396Z,584
2017-08-25T05:02:50.956Z,632
2017-08-25T05:03:31.526Z,668
2017-08-25T05:04:12.086Z,684
2017-08-25T05:04:52.679Z,676
2017-08-25T05:05:33.258Z,668
2017-08-25T05:06:13.830Z,656
2017-08-25T05:06:54.410Z,636
2017-08-25T05:07:34.986Z,620
2017-08-25T05:08:15.554Z,616
2017-08-25T05:08:56.147Z,624
2017-08-25T05:09:36.751Z,632
2017-08-25T05:10:17.307Z,620
2017-08-25T05:10:57.875Z,596
2017-08-25T05:11:38.462Z,560
2017-08-25T05:12:19.035Z,536
2017-08-25T05:12:59.609Z,504
2017-08-25T05:13:40.179Z,488
2017-08-25T05:14:20.745Z,492
2017-08-25T05:15:01.324Z,488
2017-08-25T05:15:41.888Z,492
2017-08-25T05:16:22.461Z,492
2017-08-25T05:17:03.031Z,480
2017-08-25T05:17:43.637Z,480
2017-08-25T05:18:24.203Z,484
2017-08-25T05:19:04.784Z,500
2017-08-25T05:19:45.361Z,524
2017-08-25T05:20:25.931Z,540
2017-08-25T05:21:06.521Z,588
2017-08-25T05:21:47.109Z,616
2017-08-25T05:22:27.697Z,620
2017-08-25T05:23:08.276Z,648
2017-08-25T05:23:48.884Z,684
2017-08-25T05:24:29.455Z,740
2017-08-25T05:25:10.044Z,784
2017-08-25T05:25:50.602Z,820
2017-08-25T05:26:31.179Z,836
2017-08-25T05:27:11.770Z,876
2017-08-25T05:27:52.360Z,920
2017-08-25T05:28:32.923Z,960
2017-08-25T05:29:13.497Z,1028
2017-08-25T05:29:54.076Z,1096
2017-08-25T05:30:34.664Z,1172
2017-08-25T05:31:15.223Z,1276
2017-08-25T05:31:55.787Z,1352
2017-08-25T05:32:36.351Z,1368
2017-08-25T05:33:16.928Z,1368
2017-08-25T05:33:57.500Z,1404
2017-08-25T05:34:38.075Z,1424
2017-08-25T05:35:18.645Z,1424
2017-08-25T05:35:59.238Z,1444
2017-08-25T05:36:39.837Z,1560
2017-08-25T05:37:20.410Z,1696
2017-08-25T05:38:00.976Z,1836
2017-08-25T05:38:41.600Z,1952
2017-08-25T05:39:22.136Z,2024
2017-08-25T05:40:02.708Z,2128
2017-08-25T05:40:43.283Z,2208
2017-08-25T05:41:23.864Z,2280
2017-08-25T05:42:04.448Z,2536
2017-08-25T05:42:45.011Z,2904
2017-08-25T05:43:25.590Z,3368
2017-08-25T05:44:06.180Z,3824
2017-08-25T05:44:46.787Z,4144
2017-08-25T05:45:27.361Z,4268
2017-08-25T05:46:07.936Z,4436
2017-08-25T05:46:48.503Z,4824
2017-08-25T05:47:29.084Z,5140
2017-08-25T05:48:09.679Z,5228
2017-08-25T05:48:50.255Z,5156
2017-08-25T05:49:30.837Z,4972
2017-08-25T05:50:11.422Z,4796
2017-08-25T05:50:51.990Z,4480
2017-08-25T05:51:32.571Z,4336
2017-08-25T05:52:13.162Z,4352
2017-08-25T05:52:53.736Z,4192
2017-08-25T05:53:34.328Z,4140
2017-08-25T05:54:14.904Z,4196
2017-08-25T05:54:55.470Z,4240
2017-08-25T05:55:36.047Z,4164
2017-08-25T05:56:16.641Z,4020
2017-08-25T05:56:57.235Z,3844
2017-08-25T05:57:37.803Z,3956
2017-08-25T05:58:18.364Z,4100
2017-08-25T05:58:58.960Z,4236
2017-08-25T05:59:39.554Z,4500
2017-08-25T06:00:20.123Z,4628
2017-08-25T06:01:00.700Z,4664
2017-08-25T06:01:41.268Z,4796
2017-08-25T06:02:21.889Z,5032
2017-08-25T06:03:02.497Z,5492
2017-08-25T06:03:43.073Z,5840
2017-08-25T06:04:23.677Z,5684
2017-08-25T06:05:04.276Z,5312
2017-08-25T06:05:44.876Z,4888
2017-08-25T06:06:25.451Z,4732
2017-08-25T06:07:06.061Z,5048
2017-08-25T06:07:46.624Z,5596
2017-08-25T06:08:27.235Z,6092
2017-08-25T06:09:07.843Z,6532
2017-08-25T06:09:48.410Z,7040
2017-08-25T06:10:29.043Z,7444
2017-08-25T06:11:09.606Z,7796
2017-08-25T06:11:50.173Z,7616
2017-08-25T06:12:30.742Z,7540
2017-08-25T06:13:11.334Z,7256
2017-08-25T06:13:51.946Z,7196
2017-08-25T06:14:32.531Z,7272
2017-08-25T06:15:13.095Z,7336
2017-08-25T06:15:53.735Z,7112
2017-08-25T06:16:34.348Z,6856
2017-08-25T06:17:14.937Z,7040
2017-08-25T06:17:55.506Z,7092
2017-08-25T06:18:36.124Z,7276
2017-08-25T06:19:16.703Z,7504
2017-08-25T06:19:57.275Z,8300
2017-08-25T06:20:37.861Z,8784
2017-08-25T06:21:18.435Z,8848
2017-08-25T06:21:59.018Z,8916
2017-08-25T06:22:39.598Z,9092
2017-08-25T06:23:20.169Z,9460
2017-08-25T06:24:00.742Z,9572
2017-08-25T06:24:41.351Z,10120
2017-08-25T06:25:21.924Z,11020
2017-08-25T06:26:02.491Z,12512
2017-08-25T06:26:43.069Z,20544
2017-08-25T06:27:23.672Z,28384
2017-08-25T06:28:04.313Z,32608
2017-08-25T06:28:44.886Z,36512
2017-08-25T06:29:25.476Z,36064
2017-08-25T06:30:06.080Z,34272
2017-08-25T06:30:46.649Z,26400
2017-08-25T06:31:27.367Z,22048
2017-08-25T06:32:07.970Z,25312
2017-08-25T06:32:48.583Z,27008
2017-08-25T06:33:29.175Z,16672
2017-08-25T06:34:09.772Z,37504
2017-08-25T06:34:50.340Z,28704
2017-08-25T06:35:30.908Z,13320
2017-08-25T06:36:11.508Z,12848
2017-08-25T06:36:52.084Z,8744
2017-08-25T06:37:32.715Z,8024
2017-08-25T06:38:13.323Z,8072
2017-08-25T06:38:53.927Z,8328
2017-08-25T06:39:34.559Z,12992
2017-08-25T06:40:15.154Z,9152
2017-08-25T06:40:55.742Z,8608
2017-08-25T06:41:36.297Z,8496
2017-08-25T06:42:16.887Z,8020
2017-08-25T06:42:57.463Z,7784
2017-08-25T06:43:38.057Z,7784
2017-08-25T06:44:18.624Z,8004
2017-08-25T06:44:59.199Z,9656
2017-08-25T06:45:39.776Z,22912
2017-08-25T06:46:20.378Z,27968
2017-08-25T06:47:00.959Z,22656
2017-08-25T06:47:41.606Z,7164
2017-08-25T06:48:22.170Z,6876
2017-08-25T06:49:02.769Z,6088
2017-08-25T06:49:43.340Z,5400
2017-08-25T06:50:24.033Z,5056
2017-08-25T06:51:04.607Z,4656
2017-08-25T06:51:45.200Z,4360
2017-08-25T06:52:25.850Z,4336
2017-08-25T06:53:06.477Z,4340
2017-08-25T06:53:47.053Z,4516
2017-08-25T06:54:27.641Z,4628
2017-08-25T06:55:08.215Z,4748
2017-08-25T06:55:48.799Z,5092
2017-08-25T06:56:29.382Z,5360
2017-08-25T06:57:09.961Z,6096
2017-08-25T06:57:50.616Z,6680
2017-08-25T06:58:31.199Z,6836
2017-08-25T06:59:11.775Z,6852
2017-08-25T06:59:52.458Z,6160
2017-08-25T07:00:33.013Z,5396
2017-08-25T07:01:13.554Z,5000
2017-08-25T07:01:54.137Z,5036
2017-08-25T07:02:34.720Z,5312
2017-08-25T07:03:15.304Z,5484
2017-08-25T07:03:55.888Z,6468
2017-08-25T07:04:36.462Z,7828
2017-08-25T07:05:17.025Z,8988
2017-08-25T07:05:57.603Z,8564
2017-08-25T07:06:38.169Z,12120
2017-08-25T07:07:18.727Z,7708
2017-08-25T07:07:59.311Z,7804
2017-08-25T07:08:39.887Z,8204
2017-08-25T07:09:20.474Z,9068
2017-08-25T07:10:01.048Z,8696
2017-08-25T07:10:41.619Z,8972
2017-08-25T07:11:22.199Z,8992
2017-08-25T07:12:02.795Z,10420
2017-08-25T07:12:43.449Z,11148
2017-08-25T07:13:24.047Z,10396
2017-08-25T07:14:04.613Z,10776
2017-08-25T07:14:45.198Z,12244
2017-08-25T07:15:25.770Z,22176
2017-08-25T07:16:06.333Z,12880
2017-08-25T07:16:46.919Z,26240
2017-08-25T07:17:27.493Z,16448
2017-08-25T07:18:08.067Z,31904
2017-08-25T07:18:48.655Z,16416
2017-08-25T07:19:29.268Z,22944
2017-08-25T07:20:09.853Z,16480
2017-08-25T07:20:50.429Z,14860
2017-08-25T07:21:31.010Z,24000
2017-08-25T07:22:11.582Z,19040
2017-08-25T07:22:52.439Z,15080
2017-08-25T07:23:33.120Z,13012
2017-08-25T07:24:13.706Z,13556
2017-08-25T07:24:54.279Z,9572
2017-08-25T07:25:34.840Z,9072
2017-08-25T07:26:15.413Z,9872
2017-08-25T07:26:55.987Z,9584
2017-08-25T07:27:36.556Z,8616
2017-08-25T07:28:17.148Z,7796
2017-08-25T07:28:57.778Z,7504
2017-08-25T07:29:38.378Z,8864
2017-08-25T07:30:18.975Z,8412
2017-08-25T07:30:59.542Z,11352
2017-08-25T07:31:40.155Z,8176
2017-08-25T07:32:20.723Z,8224
2017-08-25T07:33:01.319Z,10940
2017-08-25T07:33:41.895Z,10088
2017-08-25T07:34:22.579Z,10444
2017-08-25T07:35:03.174Z,12604
2017-08-25T07:35:43.792Z,11784
2017-08-25T07:36:24.415Z,14392
2017-08-25T07:37:04.981Z,15676
2017-08-25T07:37:45.621Z,16480
2017-08-25T07:38:26.197Z,17408
2017-08-25T07:39:06.939Z,37312
2017-08-25T07:39:47.549Z,21664
2017-08-25T07:40:28.105Z,47264
2017-08-25T07:41:08.675Z,36448
2017-08-25T07:41:49.260Z,41184
2017-08-25T07:42:29.877Z,42880
2017-08-25T07:43:10.458Z,47264
2017-08-25T07:43:51.047Z,32512
2017-08-25T07:44:31.636Z,33568
2017-08-25T07:45:12.245Z,40672
2017-08-25T07:45:52.858Z,42496
2017-08-25T07:46:33.501Z,39008
2017-08-25T07:47:14.173Z,40448
2017-08-25T07:47:54.743Z,53120
2017-08-25T07:48:35.327Z,53120
2017-08-25T07:49:15.956Z,40576
2017-08-25T07:49:56.556Z,24672
2017-08-25T07:50:37.164Z,28416
2017-08-25T07:51:17.784Z,36896
2017-08-25T07:51:58.445Z,42560
2017-08-25T07:52:39.059Z,40640
2017-08-25T07:53:19.650Z,49536
2017-08-25T07:54:00.241Z,53088
2017-08-25T07:54:40.814Z,20672
2017-08-25T07:55:21.443Z,18208
2017-08-25T07:56:02.060Z,61440
2017-08-25T07:56:42.647Z,65536
2017-08-25T07:57:23.221Z,55232
2017-08-25T07:58:04.140Z,65440
2017-08-25T07:58:44.553Z,63936
2017-08-25T07:59:25.136Z,65312
2017-08-25T08:00:05.740Z,61664
2017-08-25T08:00:46.323Z,58592
2017-08-25T08:01:26.926Z,58816
2017-08-25T08:02:07.513Z,57408
2017-08-25T08:02:48.137Z,53696
2017-08-25T08:03:28.765Z,47584
2017-08-25T08:04:09.342Z,19264
2017-08-25T08:04:49.955Z,45056
2017-08-25T08:05:30.554Z,55968
2017-08-25T08:06:11.148Z,61536
2017-08-25T08:06:51.758Z,57312
2017-08-25T08:07:32.371Z,58016
2017-08-25T08:08:12.932Z,52640
2017-08-25T08:08:53.559Z,46976
2017-08-25T08:09:34.150Z,26816
2017-08-25T08:10:14.759Z,46208
2017-08-25T08:10:55.364Z,25344
2017-08-25T08:11:35.972Z,33856
2017-08-25T08:12:16.576Z,23680
2017-08-25T08:12:57.180Z,25088
2017-08-25T08:13:37.767Z,21280
2017-08-25T08:14:18.379Z,21088
2017-08-25T08:14:58.977Z,17056
2017-08-25T08:15:39.598Z,21184
2017-08-25T08:16:20.214Z,17312
2017-08-25T08:17:00.863Z,15460
2017-08-25T08:17:41.452Z,16044
2017-08-25T08:18:22.054Z,19392
2017-08-25T08:19:02.645Z,15864
2017-08-25T08:19:43.230Z,15516
2017-08-25T08:20:23.865Z,15372
2017-08-25T08:21:04.583Z,13992
2017-08-25T08:21:45.096Z,14128
2017-08-25T08:22:25.708Z,13704
2017-08-25T08:23:06.305Z,13692
2017-08-25T08:23:46.911Z,14076
2017-08-25T08:24:27.516Z,16672
2017-08-25T08:25:08.118Z,18368
2017-08-25T08:25:48.724Z,17984
2017-08-25T08:26:29.313Z,17888
2017-08-25T08:27:09.927Z,19200
2017-08-25T08:27:50.514Z,17920
2017-08-25T08:28:31.132Z,18528
2017-08-25T08:29:11.719Z,18144
2017-08-25T08:29:52.352Z,16768
2017-08-25T08:30:32.948Z,13548
2017-08-25T08:31:13.567Z,14864
2017-08-25T08:31:54.175Z,13308
2017-08-25T08:32:34.765Z,12352
2017-08-25T08:33:15.346Z,11752
2017-08-25T08:33:55.939Z,11344
2017-08-25T08:34:36.542Z,13992
2017-08-25T08:35:17.145Z,15812
2017-08-25T08:35:57.715Z,16140
2017-08-25T08:36:38.317Z,15892
2017-08-25T08:37:18.885Z,15324
2017-08-25T08:37:59.460Z,14956
2017-08-25T08:38:40.036Z,15056
2017-08-25T08:39:20.693Z,14912
2017-08-25T08:40:01.234Z,15152
2017-08-25T08:40:41.857Z,15580
2017-08-25T08:41:22.464Z,15684
2017-08-25T08:42:03.042Z,15312
2017-08-25T08:42:43.606Z,15468
2017-08-25T08:43:24.187Z,15556
2017-08-25T08:44:04.775Z,15764
2017-08-25T08:44:45.343Z,15480
2017-08-25T08:45:25.924Z,15500
2017-08-25T08:46:06.515Z,15388
2017-08-25T08:46:47.106Z,15720
2017-08-25T08:47:27.709Z,13896
2017-08-25T08:48:08.294Z,13120
2017-08-25T08:48:48.936Z,12388
2017-08-25T08:49:29.514Z,11944
2017-08-25T08:50:10.124Z,11336
2017-08-25T08:50:50.721Z,11628
2017-08-25T08:51:31.299Z,12272
2017-08-25T08:52:11.975Z,12824
2017-08-25T08:52:52.597Z,12676
2017-08-25T08:53:33.203Z,12160
2017-08-25T08:54:13.773Z,13124
2017-08-25T08:54:54.356Z,12708
2017-08-25T08:55:34.937Z,12568
2017-08-25T08:56:15.524Z,12816
2017-08-25T08:56:56.104Z,11628
2017-08-25T08:57:36.673Z,11120
2017-08-25T08:58:17.254Z,10844
2017-08-25T08:58:58.006Z,10576
2017-08-25T08:59:38.594Z,9748
2017-08-25T09:00:19.192Z,8808
2017-08-25T09:00:59.773Z,7160
2017-08-25T09:01:40.390Z,5568
2017-08-25T09:02:21.001Z,4972
2017-08-25T09:03:01.602Z,4640
2017-08-25T09:03:42.170Z,4008
2017-08-25T09:04:22.818Z,3320
2017-08-25T09:05:03.403Z,3272
2017-08-25T09:05:44.007Z,3952
2017-08-25T09:06:24.604Z,5432
2017-08-25T09:07:05.187Z,6680
2017-08-25T09:07:45.772Z,7568
2017-08-25T09:08:26.360Z,8232
2017-08-25T09:09:06.989Z,8068
2017-08-25T09:09:47.567Z,8688
2017-08-25T09:10:28.153Z,9728
2017-08-25T09:11:08.746Z,10284
2017-08-25T09:11:49.315Z,10704
2017-08-25T09:12:29.891Z,10976
2017-08-25T09:13:10.466Z,10768
2017-08-25T09:13:51.047Z,10824
2017-08-25T09:14:31.634Z,10620
2017-08-25T09:15:12.204Z,11208
2017-08-25T09:15:52.790Z,11148
2017-08-25T09:16:33.417Z,10968
2017-08-25T09:17:14.009Z,11008
2017-08-25T09:17:54.608Z,10904
2017-08-25T09:18:35.194Z,10544
2017-08-25T09:19:15.768Z,10332
2017-08-25T09:19:56.381Z,10108
2017-08-25T09:20:36.955Z,9960
2017-08-25T09:21:17.537Z,9868
2017-08-25T09:21:58.135Z,9940
2017-08-25T09:22:38.708Z,10440
2017-08-25T09:23:19.287Z,10948
2017-08-25T09:23:59.859Z,11208